Harnell Park, Minnesota
Current Conditions -  °F | °C
As of 6:55 PM on Saturday 25 Oct 2014 (Local Time) from KDLH Reporting Station
Clear Clear  
Wind Chill: 11°   Ceiling: Unl
Heat Index: 11°   Visibility: 10mi
Dew Point: -3°   Wind: 14mph
Humidity: 38%   Direction: 290°WNW
Pressure: 29.95"   Gusts: NA
Location:  46.8859°N, 92.4258°W
Report Text: KDLH 252355Z 29012KT 10SM CLR 11/M03 A2995 RMK AO2 SLP150 T01061033 10150 20106 51013
Loading
Personal Weather Stations






























Interactive Weather Map
Tropical Storm Tracking
New forecast layout! Learn more

10-Day Weather Forecast

Advertisements
Track Severe Weather on mobile